sensor_id;sensor_type;location;lat;lon;timestamp;temperature;humidity
9861;DHT22;4969;52.304;4.968;2023-02-01T00:00:10;9.50;68.91
9861;DHT22;4969;52.304;4.968;2023-02-01T00:02:37;10.02;65.12
9861;DHT22;4969;52.304;4.968;2023-02-01T00:05:07;9.91;68.79
9861;DHT22;4969;52.304;4.968;2023-02-01T00:07:33;9.10;65.23
9861;DHT22;4969;52.304;4.968;2023-02-01T00:10:01;9.07;64.83
9861;DHT22;4969;52.304;4.968;2023-02-01T00:12:29;8.76;64.54
9861;DHT22;4969;52.304;4.968;2023-02-01T00:14:55;9.61;65.64
9861;DHT22;4969;52.304;4.968;2023-02-01T00:17:22;9.30;68.82
9861;DHT22;4969;52.304;4.968;2023-02-01T00:19:48;9.16;64.47
9861;DHT22;4969;52.304;4.968;2023-02-01T00:22:15;8.91;66.76
9861;DHT22;4969;52.304;4.968;2023-02-01T00:24:41;9.20;70.53
9861;DHT22;4969;52.304;4.968;2023-02-01T00:27:09;9.34;64.17
9861;DHT22;4969;52.304;4.968;2023-02-01T00:29:36;9.51;67.43
9861;DHT22;4969;52.304;4.968;2023-02-01T00:32:03;8.81;64.82
9861;DHT22;4969;52.304;4.968;2023-02-01T00:34:30;8.81;65.32
9861;DHT22;4969;52.304;4.968;2023-02-01T00:36:56;9.36;67.90
9861;DHT22;4969;52.304;4.968;2023-02-01T00:39:23;9.30;64.72
9861;DHT22;4969;52.304;4.968;2023-02-01T00:41:49;9.43;64.14
9861;DHT22;4969;52.304;4.968;2023-02-01T00:44:17;9.24;65.09
9861;DHT22;4969;52.304;4.968;2023-02-01T00:46:44;9.02;70.50
9861;DHT22;4969;52.304;4.968;2023-02-01T00:49:11;8.84;65.11
9861;DHT22;4969;52.304;4.968;2023-02-01T00:51:37;9.45;67.70
9861;DHT22;4969;52.304;4.968;2023-02-01T00:54:04;9.19;63.32
9861;DHT22;4969;52.304;4.968;2023-02-01T00:56:30;8.91;71.54
9861;DHT22;4969;52.304;4.968;2023-02-01T00:58:57;8.60;65.10
9861;DHT22;4969;52.304;4.968;2023-02-01T01:01:26;8.91;64.96
9861;DHT22;4969;52.304;4.968;2023-02-01T01:03:55;9.30;68.06
9861;DHT22;4969;52.304;4.968;2023-02-01T01:06:24;8.61;64.28
9861;DHT22;4969;52.304;4.968;2023-02-01T01:08:52;8.76;66.10
9861;DHT22;4969;52.304;4.968;2023-02-01T01:11:20;9.17;68.30
9861;DHT22;4969;52.304;4.968;2023-02-01T01:13:48;9.02;66.68
9861;DHT22;4969;52.304;4.968;2023-02-01T01:16:15;8.98;63.54
9861;DHT22;4969;52.304;4.968;2023-02-01T01:18:43;8.91;69.07
9861;DHT22;4969;52.304;4.968;2023-02-01T01:21:12;8.88;66.01
9861;DHT22;4969;52.304;4.968;2023-02-01T01:23:39;8.71;68.12
9861;DHT22;4969;52.304;4.968;2023-02-01T01:26:07;8.47;65.05
9861;DHT22;4969;52.304;4.968;2023-02-01T01:28:34;8.75;65.04
9861;DHT22;4969;52.304;4.968;2023-02-01T01:31:01;8.24;65.78
9861;DHT22;4969;52.304;4.968;2023-02-01T01:33:28;8.50;67.68
9861;DHT22;4969;52.304;4.968;2023-02-01T01:35:56;8.34;66.50
9861;DHT22;4969;52.304;4.968;2023-02-01T01:38:22;8.76;71.22
9861;DHT22;4969;52.304;4.968;2023-02-01T01:40:49;8.78;69.49
9861;DHT22;4969;52.304;4.968;2023-02-01T01:43:18;8.43;67.68
9861;DHT22;4969;52.304;4.968;2023-02-01T01:45:48;9.06;66.46
9861;DHT22;4969;52.304;4.968;2023-02-01T01:48:18;8.68;69.03
9861;DHT22;4969;52.304;4.968;2023-02-01T01:50:49;8.51;66.72
9861;DHT22;4969;52.304;4.968;2023-02-01T01:53:22;8.82;66.45
9861;DHT22;4969;52.304;4.968;2023-02-01T01:55:50;8.30;66.77
9861;DHT22;4969;52.304;4.968;2023-02-01T01:58:19;8.52;67.44
9861;DHT22;4969;52.304;4.968;2023-02-01T02:00:47;8.37;66.88
9861;DHT22;4969;52.304;4.968;2023-02-01T02:03:17;8.50;71.54
9861;DHT22;4969;52.304;4.968;2023-02-01T02:05:47;9.05;67.15
9861;DHT22;4969;52.304;4.968;2023-02-01T02:08:14;9.05;71.27
9861;DHT22;4969;52.304;4.968;2023-02-01T02:10:43;8.99;70.57
9861;DHT22;4969;52.304;4.968;2023-02-01T02:13:29;9.03;65.87
9861;DHT22;4969;52.304;4.968;2023-02-01T02:16:06;9.03;66.95
9861;DHT22;4969;52.304;4.968;2023-02-01T02:18:43;8.72;67.56
9861;DHT22;4969;52.304;4.968;2023-02-01T02:21:14;8.64;66.25
9861;DHT22;4969;52.304;4.968;2023-02-01T02:24:10;8.69;69.20
9861;DHT22;4969;52.304;4.968;2023-02-01T02:26:57;8.61;66.28
9861;DHT22;4969;52.304;4.968;2023-02-01T02:29:53;8.69;67.81
9861;DHT22;4969;52.304;4.968;2023-02-01T02:35:27;8.81;66.99
9861;DHT22;4969;52.304;4.968;2023-02-01T02:38:04;8.41;67.22
9861;DHT22;4969;52.304;4.968;2023-02-01T02:40:42;8.65;70.86
9861;DHT22;4969;52.304;4.968;2023-02-01T02:43:18;8.91;68.85
9861;DHT22;4969;52.304;4.968;2023-02-01T02:46:06;9.65;72.63
9861;DHT22;4969;52.304;4.968;2023-02-01T02:48:57;9.12;68.79
9861;DHT22;4969;52.304;4.968;2023-02-01T02:51:32;9.55;64.89
9861;DHT22;4969;52.304;4.968;2023-02-01T02:54:21;9.85;70.96
9861;DHT22;4969;52.304;4.968;2023-02-01T02:57:10;9.02;66.29
9861;DHT22;4969;52.304;4.968;2023-02-01T02:59:55;8.55;71.00
9861;DHT22;4969;52.304;4.968;2023-02-01T03:02:41;8.99;69.93
9861;DHT22;4969;52.304;4.968;2023-02-01T03:05:32;8.45;68.50
9861;DHT22;4969;52.304;4.968;2023-02-01T03:08:08;9.19;73.03
9861;DHT22;4969;52.304;4.968;2023-02-01T03:10:42;8.92;71.50
9861;DHT22;4969;52.304;4.968;2023-02-01T03:13:13;9.34;69.48
9861;DHT22;4969;52.304;4.968;2023-02-01T03:15:51;9.23;67.58
9861;DHT22;4969;52.304;4.968;2023-02-01T03:18:26;8.91;72.50
9861;DHT22;4969;52.304;4.968;2023-02-01T03:20:55;8.67;69.34
9861;DHT22;4969;52.304;4.968;2023-02-01T03:23:28;8.13;69.55
9861;DHT22;4969;52.304;4.968;2023-02-01T03:25:57;8.85;67.00
9861;DHT22;4969;52.304;4.968;2023-02-01T03:28:25;8.12;68.46
9861;DHT22;4969;52.304;4.968;2023-02-01T03:30:54;8.16;68.64
9861;DHT22;4969;52.304;4.968;2023-02-01T03:33:23;8.87;67.41
9861;DHT22;4969;52.304;4.968;2023-02-01T03:35:58;8.54;70.25
9861;DHT22;4969;52.304;4.968;2023-02-01T03:38:30;8.64;68.11
9861;DHT22;4969;52.304;4.968;2023-02-01T03:41:06;8.47;70.41
9861;DHT22;4969;52.304;4.968;2023-02-01T03:43:37;8.69;67.64
9861;DHT22;4969;52.304;4.968;2023-02-01T03:46:11;8.60;68.67
9861;DHT22;4969;52.304;4.968;2023-02-01T03:48:39;8.67;70.21
9861;DHT22;4969;52.304;4.968;2023-02-01T03:51:08;8.73;67.36
9861;DHT22;4969;52.304;4.968;2023-02-01T03:53:38;8.85;72.22
9861;DHT22;4969;52.304;4.968;2023-02-01T03:56:06;8.65;69.13
9861;DHT22;4969;52.304;4.968;2023-02-01T03:58:34;8.87;72.45
9861;DHT22;4969;52.304;4.968;2023-02-01T04:01:01;8.26;68.74
9861;DHT22;4969;52.304;4.968;2023-02-01T04:03:28;8.60;72.55
9861;DHT22;4969;52.304;4.968;2023-02-01T04:05:55;8.44;69.18
9861;DHT22;4969;52.304;4.968;2023-02-01T04:08:23;8.79;70.41
9861;DHT22;4969;52.304;4.968;2023-02-01T04:10:51;8.76;70.88
9861;DHT22;4969;52.304;4.968;2023-02-01T04:13:17;8.52;67.25
9861;DHT22;4969;52.304;4.968;2023-02-01T04:15:44;8.68;71.75
9861;DHT22;4969;52.304;4.968;2023-02-01T04:18:11;8.52;67.71
9861;DHT22;4969;52.304;4.968;2023-02-01T04:20:38;8.58;67.86
9861;DHT22;4969;52.304;4.968;2023-02-01T04:23:04;8.78;70.86
9861;DHT22;4969;52.304;4.968;2023-02-01T04:25:31;8.65;68.05
9861;DHT22;4969;52.304;4.968;2023-02-01T04:27:59;8.76;71.86
9861;DHT22;4969;52.304;4.968;2023-02-01T04:30:26;8.78;69.95
9861;DHT22;4969;52.304;4.968;2023-02-01T04:32:52;8.40;67.94
9861;DHT22;4969;52.304;4.968;2023-02-01T04:35:19;8.13;69.46
9861;DHT22;4969;52.304;4.968;2023-02-01T04:37:45;8.84;67.91
9861;DHT22;4969;52.304;4.968;2023-02-01T04:40:12;8.99;71.52
9861;DHT22;4969;52.304;4.968;2023-02-01T04:42:39;9.00;69.15
9861;DHT22;4969;52.304;4.968;2023-02-01T04:45:08;8.58;67.13
9861;DHT22;4969;52.304;4.968;2023-02-01T04:47:34;8.62;69.89
9861;DHT22;4969;52.304;4.968;2023-02-01T04:50:01;8.71;67.06
9861;DHT22;4969;52.304;4.968;2023-02-01T04:52:27;8.24;72.02
9861;DHT22;4969;52.304;4.968;2023-02-01T04:54:54;8.37;70.52
9861;DHT22;4969;52.304;4.968;2023-02-01T04:57:23;9.16;71.89
9861;DHT22;4969;52.304;4.968;2023-02-01T04:59:49;9.07;66.99
9861;DHT22;4969;52.304;4.968;2023-02-01T05:02:17;8.38;67.81
9861;DHT22;4969;52.304;4.968;2023-02-01T05:04:44;8.36;69.29
9861;DHT22;4969;52.304;4.968;2023-02-01T05:07:10;8.57;69.60
9861;DHT22;4969;52.304;4.968;2023-02-01T05:09:37;8.48;68.02
9861;DHT22;4969;52.304;4.968;2023-02-01T05:12:04;8.02;69.40
9861;DHT22;4969;52.304;4.968;2023-02-01T05:14:48;8.57;72.47
9861;DHT22;4969;52.304;4.968;2023-02-01T05:17:16;8.78;70.36
9861;DHT22;4969;52.304;4.968;2023-02-01T05:19:43;9.36;70.12
9861;DHT22;4969;52.304;4.968;2023-02-01T05:22:09;8.79;69.39
9861;DHT22;4969;52.304;4.968;2023-02-01T05:24:36;8.92;71.06
9861;DHT22;4969;52.304;4.968;2023-02-01T05:27:02;8.67;68.79
9861;DHT22;4969;52.304;4.968;2023-02-01T05:29:29;8.50;71.11
9861;DHT22;4969;52.304;4.968;2023-02-01T05:31:56;8.50;68.58
9861;DHT22;4969;52.304;4.968;2023-02-01T05:34:24;8.20;70.90
9861;DHT22;4969;52.304;4.968;2023-02-01T05:36:50;8.93;70.48
9861;DHT22;4969;52.304;4.968;2023-02-01T05:39:17;8.20;69.28
9861;DHT22;4969;52.304;4.968;2023-02-01T05:41:44;7.94;70.57
9861;DHT22;4969;52.304;4.968;2023-02-01T05:44:11;7.78;71.36
9861;DHT22;4969;52.304;4.968;2023-02-01T05:46:37;7.99;71.74
9861;DHT22;4969;52.304;4.968;2023-02-01T05:49:04;8.13;70.48
9861;DHT22;4969;52.304;4.968;2023-02-01T05:51:32;8.33;72.95
9861;DHT22;4969;52.304;4.968;2023-02-01T05:53:59;8.12;71.35
9861;DHT22;4969;52.304;4.968;2023-02-01T05:56:26;8.43;69.19
9861;DHT22;4969;52.304;4.968;2023-02-01T05:58:52;8.41;71.30
9861;DHT22;4969;52.304;4.968;2023-02-01T06:01:19;8.41;72.82
9861;DHT22;4969;52.304;4.968;2023-02-01T06:03:45;7.98;71.18
9861;DHT22;4969;52.304;4.968;2023-02-01T06:06:12;8.15;69.36
9861;DHT22;4969;52.304;4.968;2023-02-01T06:08:40;7.95;72.90
9861;DHT22;4969;52.304;4.968;2023-02-01T06:11:07;7.95;71.68
9861;DHT22;4969;52.304;4.968;2023-02-01T06:13:34;7.68;71.53
9861;DHT22;4969;52.304;4.968;2023-02-01T06:16:01;7.55;70.91
9861;DHT22;4969;52.304;4.968;2023-02-01T06:18:28;7.94;71.49
9861;DHT22;4969;52.304;4.968;2023-02-01T06:20:56;7.72;70.45
9861;DHT22;4969;52.304;4.968;2023-02-01T06:23:25;7.86;69.76
9861;DHT22;4969;52.304;4.968;2023-02-01T06:25:58;7.68;71.30
9861;DHT22;4969;52.304;4.968;2023-02-01T06:28:26;7.51;71.33
9861;DHT22;4969;52.304;4.968;2023-02-01T06:30:52;7.43;71.57
9861;DHT22;4969;52.304;4.968;2023-02-01T06:33:19;7.54;71.16
9861;DHT22;4969;52.304;4.968;2023-02-01T06:35:46;7.37;72.87
9861;DHT22;4969;52.304;4.968;2023-02-01T06:38:13;7.86;70.39
9861;DHT22;4969;52.304;4.968;2023-02-01T06:40:40;7.71;71.25
9861;DHT22;4969;52.304;4.968;2023-02-01T06:43:08;7.57;72.22
9861;DHT22;4969;52.304;4.968;2023-02-01T06:45:35;7.55;72.32
9861;DHT22;4969;52.304;4.968;2023-02-01T06:48:02;7.92;71.49
9861;DHT22;4969;52.304;4.968;2023-02-01T06:50:28;8.30;74.58
9861;DHT22;4969;52.304;4.968;2023-02-01T06:52:55;8.41;71.09
9861;DHT22;4969;52.304;4.968;2023-02-01T06:55:22;8.19;71.41
9861;DHT22;4969;52.304;4.968;2023-02-01T06:57:53;7.88;71.31
9861;DHT22;4969;52.304;4.968;2023-02-01T07:00:22;8.58;72.81
9861;DHT22;4969;52.304;4.968;2023-02-01T07:02:49;8.29;71.57
9861;DHT22;4969;52.304;4.968;2023-02-01T07:05:16;8.50;71.44
9861;DHT22;4969;52.304;4.968;2023-02-01T07:07:43;8.45;72.65
9861;DHT22;4969;52.304;4.968;2023-02-01T07:10:10;7.99;70.62
9861;DHT22;4969;52.304;4.968;2023-02-01T07:12:37;7.65;71.89
9861;DHT22;4969;52.304;4.968;2023-02-01T07:15:05;7.99;71.74
9861;DHT22;4969;52.304;4.968;2023-02-01T07:17:33;7.91;72.15
9861;DHT22;4969;52.304;4.968;2023-02-01T07:19:59;7.78;70.88
9861;DHT22;4969;52.304;4.968;2023-02-01T07:22:26;7.67;72.59
9861;DHT22;4969;52.304;4.968;2023-02-01T07:24:53;7.81;71.87
9861;DHT22;4969;52.304;4.968;2023-02-01T07:27:20;8.10;71.56
9861;DHT22;4969;52.304;4.968;2023-02-01T07:29:50;8.02;72.28
9861;DHT22;4969;52.304;4.968;2023-02-01T07:32:16;8.03;72.04
9861;DHT22;4969;52.304;4.968;2023-02-01T07:34:45;7.94;72.67
9861;DHT22;4969;52.304;4.968;2023-02-01T07:37:11;7.77;72.48
9861;DHT22;4969;52.304;4.968;2023-02-01T07:39:38;7.79;74.23
9861;DHT22;4969;52.304;4.968;2023-02-01T07:42:05;7.85;72.32
9861;DHT22;4969;52.304;4.968;2023-02-01T07:44:32;7.91;73.72
9861;DHT22;4969;52.304;4.968;2023-02-01T07:46:58;7.99;72.33
9861;DHT22;4969;52.304;4.968;2023-02-01T07:49:25;7.89;71.65
9861;DHT22;4969;52.304;4.968;2023-02-01T07:51:53;8.29;75.42
9861;DHT22;4969;52.304;4.968;2023-02-01T07:54:19;7.99;70.90
9861;DHT22;4969;52.304;4.968;2023-02-01T07:56:46;7.89;72.27
9861;DHT22;4969;52.304;4.968;2023-02-01T07:59:12;8.54;73.58
9861;DHT22;4969;52.304;4.968;2023-02-01T08:01:40;7.79;71.96
9861;DHT22;4969;52.304;4.968;2023-02-01T08:04:05;8.30;73.35
9861;DHT22;4969;52.304;4.968;2023-02-01T08:06:33;8.37;74.51
9861;DHT22;4969;52.304;4.968;2023-02-01T08:09:02;8.15;72.54
9861;DHT22;4969;52.304;4.968;2023-02-01T08:11:28;8.50;72.70
9861;DHT22;4969;52.304;4.968;2023-02-01T08:13:55;8.34;70.50
9861;DHT22;4969;52.304;4.968;2023-02-01T08:16:22;8.33;69.67
9861;DHT22;4969;52.304;4.968;2023-02-01T08:18:50;8.38;72.55
9861;DHT22;4969;52.304;4.968;2023-02-01T08:21:18;8.58;74.75
9861;DHT22;4969;52.304;4.968;2023-02-01T08:23:45;8.64;71.02
9861;DHT22;4969;52.304;4.968;2023-02-01T08:26:15;8.57;71.52
9861;DHT22;4969;52.304;4.968;2023-02-01T08:28:44;8.41;73.59
9861;DHT22;4969;52.304;4.968;2023-02-01T08:31:15;8.30;71.15
9861;DHT22;4969;52.304;4.968;2023-02-01T08:33:43;8.09;71.02
9861;DHT22;4969;52.304;4.968;2023-02-01T08:36:10;8.30;71.74
9861;DHT22;4969;52.304;4.968;2023-02-01T08:38:38;8.02;71.10
9861;DHT22;4969;52.304;4.968;2023-02-01T08:41:06;8.95;68.65
9861;DHT22;4969;52.304;4.968;2023-02-01T08:43:34;8.81;70.50
9861;DHT22;4969;52.304;4.968;2023-02-01T08:46:00;8.88;69.24
9861;DHT22;4969;52.304;4.968;2023-02-01T08:48:27;8.51;69.50
9861;DHT22;4969;52.304;4.968;2023-02-01T08:50:54;8.50;70.26
9861;DHT22;4969;52.304;4.968;2023-02-01T08:53:20;8.40;70.13
9861;DHT22;4969;52.304;4.968;2023-02-01T08:55:47;8.57;75.41
9861;DHT22;4969;52.304;4.968;2023-02-01T08:58:14;8.64;72.77
9861;DHT22;4969;52.304;4.968;2023-02-01T09:00:43;8.78;70.18
9861;DHT22;4969;52.304;4.968;2023-02-01T09:03:11;8.85;68.17
9861;DHT22;4969;52.304;4.968;2023-02-01T09:05:38;9.28;70.59
9861;DHT22;4969;52.304;4.968;2023-02-01T09:08:05;9.22;70.94
9861;DHT22;4969;52.304;4.968;2023-02-01T09:10:32;8.92;68.86
9861;DHT22;4969;52.304;4.968;2023-02-01T09:12:59;8.76;72.30
9861;DHT22;4969;52.304;4.968;2023-02-01T09:15:25;8.89;69.53
9861;DHT22;4969;52.304;4.968;2023-02-01T09:17:53;9.48;69.84
9861;DHT22;4969;52.304;4.968;2023-02-01T09:20:20;9.15;71.50
9861;DHT22;4969;52.304;4.968;2023-02-01T09:22:49;9.13;74.02
9861;DHT22;4969;52.304;4.968;2023-02-01T09:25:16;8.92;68.64
9861;DHT22;4969;52.304;4.968;2023-02-01T09:27:43;8.61;68.36
9861;DHT22;4969;52.304;4.968;2023-02-01T09:30:10;9.20;69.29
9861;DHT22;4969;52.304;4.968;2023-02-01T09:32:37;9.31;69.22
9861;DHT22;4969;52.304;4.968;2023-02-01T09:35:06;9.28;69.34
9861;DHT22;4969;52.304;4.968;2023-02-01T09:37:32;9.05;67.47
9861;DHT22;4969;52.304;4.968;2023-02-01T09:39:59;8.68;68.43
9861;DHT22;4969;52.304;4.968;2023-02-01T09:42:43;8.69;68.41
9861;DHT22;4969;52.304;4.968;2023-02-01T09:45:20;9.05;74.12
9861;DHT22;4969;52.304;4.968;2023-02-01T09:47:52;9.12;70.10
9861;DHT22;4969;52.304;4.968;2023-02-01T09:50:26;9.24;72.81
9861;DHT22;4969;52.304;4.968;2023-02-01T09:52:58;9.28;72.88
9861;DHT22;4969;52.304;4.968;2023-02-01T09:55:34;8.72;71.36
9861;DHT22;4969;52.304;4.968;2023-02-01T09:58:04;9.28;70.23
9861;DHT22;4969;52.304;4.968;2023-02-01T10:00:35;8.57;69.24
9861;DHT22;4969;52.304;4.968;2023-02-01T10:03:03;8.57;71.72
9861;DHT22;4969;52.304;4.968;2023-02-01T10:08:33;8.33;72.90
9861;DHT22;4969;52.304;4.968;2023-02-01T10:11:13;8.36;72.27
9861;DHT22;4969;52.304;4.968;2023-02-01T10:13:51;8.81;75.37
9861;DHT22;4969;52.304;4.968;2023-02-01T10:16:28;9.19;68.90
9861;DHT22;4969;52.304;4.968;2023-02-01T10:19:29;9.20;71.03
9861;DHT22;4969;52.304;4.968;2023-02-01T10:22:02;9.33;71.88
9861;DHT22;4969;52.304;4.968;2023-02-01T10:24:42;9.64;70.47
9861;DHT22;4969;52.304;4.968;2023-02-01T10:27:17;9.36;69.63
9861;DHT22;4969;52.304;4.968;2023-02-01T10:29:49;9.24;72.23
9861;DHT22;4969;52.304;4.968;2023-02-01T10:32:21;9.03;68.28
9861;DHT22;4969;52.304;4.968;2023-02-01T10:34:50;8.84;69.25
9861;DHT22;4969;52.304;4.968;2023-02-01T10:37:25;9.54;68.54
9861;DHT22;4969;52.304;4.968;2023-02-01T10:39:54;9.58;70.17
9861;DHT22;4969;52.304;4.968;2023-02-01T10:42:24;9.03;72.39
9861;DHT22;4969;52.304;4.968;2023-02-01T10:44:53;9.09;70.24
9861;DHT22;4969;52.304;4.968;2023-02-01T10:47:20;9.17;68.27
9861;DHT22;4969;52.304;4.968;2023-02-01T10:49:52;9.57;69.49
9861;DHT22;4969;52.304;4.968;2023-02-01T10:52:35;8.76;70.24
9861;DHT22;4969;52.304;4.968;2023-02-01T10:55:30;8.81;72.78
9861;DHT22;4969;52.304;4.968;2023-02-01T10:58:00;9.17;73.29
9861;DHT22;4969;52.304;4.968;2023-02-01T11:00:27;9.73;72.62
9861;DHT22;4969;52.304;4.968;2023-02-01T11:02:54;9.36;68.99
9861;DHT22;4969;52.304;4.968;2023-02-01T11:05:21;10.09;73.02
9861;DHT22;4969;52.304;4.968;2023-02-01T11:07:53;10.28;71.56
9861;DHT22;4969;52.304;4.968;2023-02-01T11:10:35;9.06;69.30
9861;DHT22;4969;52.304;4.968;2023-02-01T11:13:03;9.41;73.01
9861;DHT22;4969;52.304;4.968;2023-02-01T11:15:30;9.31;69.67
9861;DHT22;4969;52.304;4.968;2023-02-01T11:18:14;9.19;68.59
9861;DHT22;4969;52.304;4.968;2023-02-01T11:20:42;9.95;67.49
9861;DHT22;4969;52.304;4.968;2023-02-01T11:23:15;9.45;70.67
9861;DHT22;4969;52.304;4.968;2023-02-01T11:25:48;9.22;71.90
9861;DHT22;4969;52.304;4.968;2023-02-01T11:28:16;9.73;70.89
9861;DHT22;4969;52.304;4.968;2023-02-01T11:30:45;9.47;71.08
9861;DHT22;4969;52.304;4.968;2023-02-01T11:33:15;9.24;72.47
9861;DHT22;4969;52.304;4.968;2023-02-01T11:35:43;9.15;71.58
9861;DHT22;4969;52.304;4.968;2023-02-01T11:38:21;9.23;69.05
9861;DHT22;4969;52.304;4.968;2023-02-01T11:40:48;9.20;69.67
9861;DHT22;4969;52.304;4.968;2023-02-01T11:43:19;9.05;71.45
9861;DHT22;4969;52.304;4.968;2023-02-01T11:45:56;9.59;73.91
9861;DHT22;4969;52.304;4.968;2023-02-01T11:48:24;9.73;69.87
9861;DHT22;4969;52.304;4.968;2023-02-01T11:51:00;9.12;72.72
9861;DHT22;4969;52.304;4.968;2023-02-01T11:53:40;9.36;67.98
9861;DHT22;4969;52.304;4.968;2023-02-01T11:56:17;9.20;69.08
9861;DHT22;4969;52.304;4.968;2023-02-01T11:59:01;9.27;69.76
9861;DHT22;4969;52.304;4.968;2023-02-01T12:01:40;8.96;69.40
9861;DHT22;4969;52.304;4.968;2023-02-01T12:04:50;9.44;73.24
9861;DHT22;4969;52.304;4.968;2023-02-01T12:07:23;8.91;69.34
9861;DHT22;4969;52.304;4.968;2023-02-01T12:10:03;9.34;68.46
9861;DHT22;4969;52.304;4.968;2023-02-01T12:12:39;8.98;70.04
9861;DHT22;4969;52.304;4.968;2023-02-01T12:15:30;9.20;69.12
9861;DHT22;4969;52.304;4.968;2023-02-01T12:18:14;9.16;69.90
9861;DHT22;4969;52.304;4.968;2023-02-01T12:20:59;9.26;70.52
9861;DHT22;4969;52.304;4.968;2023-02-01T12:23:44;9.61;70.68
9861;DHT22;4969;52.304;4.968;2023-02-01T12:26:32;9.10;70.84
9861;DHT22;4969;52.304;4.968;2023-02-01T12:29:15;9.41;69.36
9861;DHT22;4969;52.304;4.968;2023-02-01T12:31:54;9.66;69.30
9861;DHT22;4969;52.304;4.968;2023-02-01T12:35:02;9.26;72.06
9861;DHT22;4969;52.304;4.968;2023-02-01T12:37:48;9.36;71.32
9861;DHT22;4969;52.304;4.968;2023-02-01T12:40:28;9.57;72.31
9861;DHT22;4969;52.304;4.968;2023-02-01T12:43:03;9.43;69.93
9861;DHT22;4969;52.304;4.968;2023-02-01T12:45:33;9.26;70.35
9861;DHT22;4969;52.304;4.968;2023-02-01T12:48:14;9.03;69.56
9861;DHT22;4969;52.304;4.968;2023-02-01T12:50:45;9.07;70.86
9861;DHT22;4969;52.304;4.968;2023-02-01T12:53:17;9.28;71.83
9861;DHT22;4969;52.304;4.968;2023-02-01T12:55:49;8.96;69.98
9861;DHT22;4969;52.304;4.968;2023-02-01T12:58:22;8.89;70.31
9861;DHT22;4969;52.304;4.968;2023-02-01T13:00:52;8.84;70.64
9861;DHT22;4969;52.304;4.968;2023-02-01T13:03:29;9.20;73.08
9861;DHT22;4969;52.304;4.968;2023-02-01T13:06:02;9.05;73.07
9861;DHT22;4969;52.304;4.968;2023-02-01T13:08:38;8.84;70.56
9861;DHT22;4969;52.304;4.968;2023-02-01T13:11:10;8.81;70.68
9861;DHT22;4969;52.304;4.968;2023-02-01T13:13:46;9.19;70.05
9861;DHT22;4969;52.304;4.968;2023-02-01T13:16:18;9.12;71.28
9861;DHT22;4969;52.304;4.968;2023-02-01T13:18:51;9.07;69.79
9861;DHT22;4969;52.304;4.968;2023-02-01T13:21:22;9.61;71.10
9861;DHT22;4969;52.304;4.968;2023-02-01T13:23:50;9.16;69.98
9861;DHT22;4969;52.304;4.968;2023-02-01T13:26:18;9.38;73.71
9861;DHT22;4969;52.304;4.968;2023-02-01T13:28:49;9.12;70.35
9861;DHT22;4969;52.304;4.968;2023-02-01T13:31:31;9.38;69.85
9861;DHT22;4969;52.304;4.968;2023-02-01T13:34:32;9.41;69.82
9861;DHT22;4969;52.304;4.968;2023-02-01T13:37:23;9.05;70.68
9861;DHT22;4969;52.304;4.968;2023-02-01T13:40:04;9.31;71.17
9861;DHT22;4969;52.304;4.968;2023-02-01T13:42:36;9.55;69.37
9861;DHT22;4969;52.304;4.968;2023-02-01T13:45:15;9.58;69.39
9861;DHT22;4969;52.304;4.968;2023-02-01T13:47:45;9.17;71.17
9861;DHT22;4969;52.304;4.968;2023-02-01T13:50:21;9.15;70.70
9861;DHT22;4969;52.304;4.968;2023-02-01T13:52:54;9.48;72.86
9861;DHT22;4969;52.304;4.968;2023-02-01T13:55:28;9.69;70.13
9861;DHT22;4969;52.304;4.968;2023-02-01T13:58:05;9.19;70.83
9861;DHT22;4969;52.304;4.968;2023-02-01T14:00:35;9.45;69.96
9861;DHT22;4969;52.304;4.968;2023-02-01T14:03:09;9.20;70.84
9861;DHT22;4969;52.304;4.968;2023-02-01T14:06:00;9.31;70.93
9861;DHT22;4969;52.304;4.968;2023-02-01T14:08:42;9.55;71.53
9861;DHT22;4969;52.304;4.968;2023-02-01T14:11:33;9.31;70.36
9861;DHT22;4969;52.304;4.968;2023-02-01T14:17:35;9.16;70.87
9861;DHT22;4969;52.304;4.968;2023-02-01T14:23:19;9.54;70.22
9861;DHT22;4969;52.304;4.968;2023-02-01T14:26:09;9.31;71.41
9861;DHT22;4969;52.304;4.968;2023-02-01T14:28:44;9.66;75.57
9861;DHT22;4969;52.304;4.968;2023-02-01T14:31:17;9.57;70.94
9861;DHT22;4969;52.304;4.968;2023-02-01T14:33:55;9.72;72.67
9861;DHT22;4969;52.304;4.968;2023-02-01T14:36:24;9.93;72.45
9861;DHT22;4969;52.304;4.968;2023-02-01T14:38:52;9.27;71.60
9861;DHT22;4969;52.304;4.968;2023-02-01T14:41:30;9.34;71.60
9861;DHT22;4969;52.304;4.968;2023-02-01T14:44:22;9.36;72.20
9861;DHT22;4969;52.304;4.968;2023-02-01T14:47:04;9.13;71.93
9861;DHT22;4969;52.304;4.968;2023-02-01T14:49:33;9.30;71.94
9861;DHT22;4969;52.304;4.968;2023-02-01T14:52:04;8.98;72.65
9861;DHT22;4969;52.304;4.968;2023-02-01T14:54:32;9.30;73.62
9861;DHT22;4969;52.304;4.968;2023-02-01T14:56:59;10.33;68.01
9861;DHT22;4969;52.304;4.968;2023-02-01T14:59:28;9.95;71.72
9861;DHT22;4969;52.304;4.968;2023-02-01T15:02:00;9.24;72.16
9861;DHT22;4969;52.304;4.968;2023-02-01T15:04:27;9.31;71.96
9861;DHT22;4969;52.304;4.968;2023-02-01T15:06:57;9.30;72.54
9861;DHT22;4969;52.304;4.968;2023-02-01T15:09:26;9.13;72.13
9861;DHT22;4969;52.304;4.968;2023-02-01T15:11:55;9.36;72.02
9861;DHT22;4969;52.304;4.968;2023-02-01T15:14:22;9.54;73.08
9861;DHT22;4969;52.304;4.968;2023-02-01T15:16:49;9.55;72.01
9861;DHT22;4969;52.304;4.968;2023-02-01T15:19:20;9.30;73.58
9861;DHT22;4969;52.304;4.968;2023-02-01T15:21:49;9.19;71.64
9861;DHT22;4969;52.304;4.968;2023-02-01T15:24:23;9.30;73.04
9861;DHT22;4969;52.304;4.968;2023-02-01T15:26:50;9.40;73.83
9861;DHT22;4969;52.304;4.968;2023-02-01T15:29:18;9.52;71.59
9861;DHT22;4969;52.304;4.968;2023-02-01T15:31:47;9.17;71.97
9861;DHT22;4969;52.304;4.968;2023-02-01T15:34:13;9.44;72.31
9861;DHT22;4969;52.304;4.968;2023-02-01T15:36:41;9.47;73.26
9861;DHT22;4969;52.304;4.968;2023-02-01T15:39:22;9.26;72.65
9861;DHT22;4969;52.304;4.968;2023-02-01T15:41:53;9.07;72.16
9861;DHT22;4969;52.304;4.968;2023-02-01T15:44:29;9.02;73.74
9861;DHT22;4969;52.304;4.968;2023-02-01T15:46:56;9.38;77.02
9861;DHT22;4969;52.304;4.968;2023-02-01T15:49:27;9.16;72.02
9861;DHT22;4969;52.304;4.968;2023-02-01T15:51:56;9.10;74.44
9861;DHT22;4969;52.304;4.968;2023-02-01T15:54:27;8.91;73.62
9861;DHT22;4969;52.304;4.968;2023-02-01T15:56:57;8.98;75.53
9861;DHT22;4969;52.304;4.968;2023-02-01T15:59:34;9.28;72.33
9861;DHT22;4969;52.304;4.968;2023-02-01T16:02:02;9.05;73.27
9861;DHT22;4969;52.304;4.968;2023-02-01T16:04:29;9.07;74.83
9861;DHT22;4969;52.304;4.968;2023-02-01T16:06:57;9.15;73.42
9861;DHT22;4969;52.304;4.968;2023-02-01T16:09:36;9.03;73.88
9861;DHT22;4969;52.304;4.968;2023-02-01T16:12:22;9.45;72.30
9861;DHT22;4969;52.304;4.968;2023-02-01T16:14:50;9.55;72.56
9861;DHT22;4969;52.304;4.968;2023-02-01T16:17:16;9.44;72.68
9861;DHT22;4969;52.304;4.968;2023-02-01T16:19:43;9.62;72.82
9861;DHT22;4969;52.304;4.968;2023-02-01T16:22:10;9.07;73.24
9861;DHT22;4969;52.304;4.968;2023-02-01T16:24:37;9.28;72.89
9861;DHT22;4969;52.304;4.968;2023-02-01T16:27:04;9.36;72.95
9861;DHT22;4969;52.304;4.968;2023-02-01T16:29:32;9.23;73.57
9861;DHT22;4969;52.304;4.968;2023-02-01T16:31:59;9.93;74.21
9861;DHT22;4969;52.304;4.968;2023-02-01T16:34:26;9.62;71.79
9861;DHT22;4969;52.304;4.968;2023-02-01T16:36:52;9.30;73.78
9861;DHT22;4969;52.304;4.968;2023-02-01T16:39:22;9.43;73.47
9861;DHT22;4969;52.304;4.968;2023-02-01T16:41:51;9.54;73.03
9861;DHT22;4969;52.304;4.968;2023-02-01T16:44:17;9.36;73.24
9861;DHT22;4969;52.304;4.968;2023-02-01T16:46:46;9.71;71.53
9861;DHT22;4969;52.304;4.968;2023-02-01T16:49:18;9.58;73.88
9861;DHT22;4969;52.304;4.968;2023-02-01T16:51:45;9.50;72.90
9861;DHT22;4969;52.304;4.968;2023-02-01T16:54:12;9.61;73.73